Alisal, California
Current Conditions -  °F | °C
As of 12:53 PM on Thursday 20 Nov 2014 (Local Time) from KSNS Reporting Station
Broken Clouds Broken Clouds  
Wind Chill: 17°   Ceiling: 10000
Heat Index: 17°   Visibility: 10mi
Dew Point: 12°   Wind: 0mph
Humidity: 70%   Direction: NA
Pressure: 30.05"   Gusts: NA
Location:  36.6786°N, 121.613°W
Report Text: KSNS 202053Z 00000KT 10SM SCT055 BKN100 17/12 A3005 RMK AO2 PRESFR SLP184 60000 T01720117 58027
Loading
Personal Weather Stations






























Interactive Weather Map New forecast layout! Learn more

10-Day Weather Forecast

Advertisements
Track Severe Weather on mobile